Time;durP1;ratioP1;P1;durP2;ratioP2;P2;SDS_P1;SDS_P2;PMS_P1;PMS_P2;Temp;Humidity;BMP_temperature;BMP_pressure;BME280_temperature;BME280_humidity;BME280_pressure;Samples;Min_cycle;Max_cycle;Signal;HPM_P1;HPM_P2
2023/10/09 00:02:14;;;;;;;25.67;12.27;;;14.80;99.90;;;;;;5031200;28;20041;-73
2023/10/09 00:04:42;;;;;;;26.50;12.75;;;14.70;99.90;;;;;;5034954;28;20275;-73
2023/10/09 00:07:08;;;;;;;27.20;11.52;;;14.70;99.90;;;;;;5018415;28;21100;-73
2023/10/09 00:09:46;;;;;;;37.40;11.57;;;14.70;99.90;;;;;;5027515;28;20022;-74
2023/10/09 00:12:16;;;;;;;21.48;11.13;;;14.80;99.90;;;;;;5017018;28;20108;-73
2023/10/09 00:14:52;;;;;;;21.20;11.52;;;14.70;99.90;;;;;;5029490;28;20037;-73
2023/10/09 00:17:19;;;;;;;21.65;10.90;;;14.80;99.90;;;;;;5035714;28;20021;-73
2023/10/09 00:19:47;;;;;;;23.45;12.15;;;14.80;99.90;;;;;;5017053;28;20028;-73
2023/10/09 00:22:37;;;;;;;23.05;11.45;;;14.80;99.90;;;;;;5035754;28;20029;-73
2023/10/09 00:25:11;;;;;;;20.40;11.55;;;14.80;99.90;;;;;;5035315;28;20030;-73
2023/10/09 00:27:42;;;;;;;22.05;11.88;;;14.80;99.90;;;;;;5017011;28;20026;-73
2023/10/09 00:30:15;;;;;;;20.92;10.82;;;14.80;99.90;;;;;;5017453;28;20026;-73
2023/10/09 00:32:42;;;;;;;24.00;10.00;;;14.70;99.90;;;;;;5034162;28;20013;-73
2023/10/09 00:38:32;;;;;;;23.13;11.40;;;14.70;99.90;;;;;;5035154;28;20052;-74
2023/10/09 00:40:46;;;;;;;21.95;10.88;;;14.70;99.90;;;;;;5034736;28;20218;-73
2023/10/09 00:43:19;;;;;;;26.80;11.25;;;14.70;99.90;;;;;;5034534;28;20029;-74
2023/10/09 00:45:47;;;;;;;29.25;12.15;;;14.60;99.90;;;;;;5035030;28;20037;-73
2023/10/09 00:48:29;;;;;;;20.33;10.35;;;14.60;99.90;;;;;;5035162;28;20056;-73
2023/10/09 00:51:00;;;;;;;;;;;14.50;99.90;;;;;;5034709;28;20017;-74
2023/10/09 00:53:32;;;;;;;19.35;10.70;;;14.50;99.90;;;;;;5030646;28;19917;-74
2023/10/09 00:56:05;;;;;;;24.45;10.65;;;14.40;99.90;;;;;;5035080;28;20022;-73
2023/10/09 00:58:35;;;;;;;20.83;10.52;;;14.40;99.90;;;;;;5034128;28;20082;-73
2023/10/09 01:01:04;;;;;;;18.48;10.18;;;14.40;99.90;;;;;;5017796;28;20041;-73
2023/10/09 01:03:33;;;;;;;22.80;11.07;;;14.40;99.90;;;;;;5018122;28;20032;-73
2023/10/09 01:08:46;;;;;;;23.55;10.73;;;14.30;99.90;;;;;;5039092;28;20041;-73
2023/10/09 01:11:21;;;;;;;22.30;10.88;;;14.30;99.90;;;;;;5037121;28;20073;-73
2023/10/09 01:16:17;;;;;;;23.05;10.45;;;14.30;99.90;;;;;;5039342;28;20048;-73
2023/10/09 01:18:44;;;;;;;19.10;10.02;;;14.20;99.90;;;;;;5037290;28;20053;-73
2023/10/09 01:21:14;;;;;;;19.95;9.65;;;14.30;99.90;;;;;;5033185;28;20013;-73
2023/10/09 01:24:08;;;;;;;20.00;10.45;;;14.20;99.90;;;;;;5021019;28;20057;-75
2023/10/09 01:26:39;;;;;;;18.23;10.65;;;14.20;99.90;;;;;;5021806;28;20009;-73
2023/10/09 01:29:27;;;;;;;24.58;10.38;;;14.30;99.90;;;;;;5038150;28;20032;-73
2023/10/09 01:32:00;;;;;;;19.13;9.60;;;14.30;99.90;;;;;;5031438;28;20029;-74
2023/10/09 01:34:49;;;;;;;19.95;9.77;;;14.20;99.90;;;;;;5033467;28;20034;-73
2023/10/09 01:37:25;;;;;;;21.90;10.60;;;14.30;99.90;;;;;;5032885;28;20022;-73
2023/10/09 01:40:24;;;;;;;21.05;10.57;;;14.30;99.90;;;;;;5035742;28;20033;-74
2023/10/09 01:42:48;;;;;;;20.60;9.98;;;14.30;99.90;;;;;;5037539;28;20040;-73
2023/10/09 01:47:50;;;;;;;19.25;10.77;;;14.20;99.90;;;;;;5038284;28;20013;-73
2023/10/09 01:50:24;;;;;;;21.33;11.38;;;14.20;99.90;;;;;;5034253;28;20021;-73
2023/10/09 01:52:55;;;;;;;22.27;12.95;;;14.20;99.90;;;;;;5020876;28;20034;-74
2023/10/09 01:55:28;;;;;;;19.60;10.35;;;14.20;99.90;;;;;;5037288;28;20037;-73
2023/10/09 01:57:54;;;;;;;22.35;10.50;;;14.20;99.90;;;;;;5036731;28;20064;-74
2023/10/09 02:00:24;;;;;;;17.60;9.98;;;14.20;99.90;;;;;;5029353;28;20034;-73
2023/10/09 02:02:50;;;;;;;19.98;11.18;;;14.20;99.90;;;;;;5038205;28;20033;-73
2023/10/09 02:07:52;;;;;;;19.05;9.75;;;14.30;99.90;;;;;;5037081;28;20018;-73
2023/10/09 02:13:00;;;;;;;17.13;9.57;;;14.20;99.90;;;;;;5036989;28;21074;-73
2023/10/09 02:23:30;;;;;;;18.48;10.15;;;14.20;99.90;;;;;;5037907;28;20052;-74
2023/10/09 02:26:04;;;;;;;22.02;10.13;;;14.30;99.90;;;;;;5020193;28;20109;-74
2023/10/09 02:28:35;;;;;;;18.83;10.82;;;14.30;99.90;;;;;;5036944;28;20030;-74
2023/10/09 02:31:09;;;;;;;23.25;11.35;;;14.20;99.90;;;;;;5037873;28;20098;-73
2023/10/09 02:33:36;;;;;;;20.55;11.07;;;14.30;99.90;;;;;;5036704;28;20033;-73
2023/10/09 02:36:09;;;;;;;18.27;9.95;;;14.30;99.90;;;;;;5019327;28;20086;-74
2023/10/09 02:38:37;;;;;;;19.48;9.82;;;14.30;99.90;;;;;;5019525;28;20016;-73
2023/10/09 02:43:44;;;;;;;20.42;10.13;;;14.30;99.90;;;;;;5033361;28;20014;-74
2023/10/09 02:46:34;;;;;;;;;;;14.20;99.90;;;;;;5015638;28;20034;-73
2023/10/09 02:48:59;;;;;;;19.33;10.48;;;14.30;99.90;;;;;;5031385;28;19912;-73
2023/10/09 02:53:57;;;;;;;19.83;9.95;;;14.30;99.90;;;;;;5032204;28;20044;-74
2023/10/09 02:56:42;;;;;;;19.08;9.32;;;14.30;99.90;;;;;;5032325;28;20037;-74
2023/10/09 02:59:10;;;;;;;24.27;11.25;;;14.30;99.90;;;;;;5008143;28;20046;-74
2023/10/09 03:01:41;;;;;;;18.45;9.35;;;14.30;99.90;;;;;;5027270;28;20057;-73
2023/10/09 03:04:14;;;;;;;19.98;9.15;;;14.30;99.90;;;;;;5015218;28;20025;-73
2023/10/09 03:06:49;;;;;;;18.63;9.38;;;14.30;99.90;;;;;;5031832;28;20105;-73
2023/10/09 03:09:26;;;;;;;16.98;8.55;;;14.30;99.90;;;;;;5030944;28;20014;-74
2023/10/09 03:11:53;;;;;;;21.00;8.70;;;14.30;99.90;;;;;;5031948;28;20037;-73
2023/10/09 03:14:26;;;;;;;16.55;8.60;;;14.20;99.90;;;;;;5025967;28;20037;-73
2023/10/09 03:16:52;;;;;;;20.52;9.48;;;14.20;99.90;;;;;;5014889;28;20089;-73
2023/10/09 03:19:21;;;;;;;17.38;8.98;;;14.20;99.90;;;;;;5014486;28;20022;-74
2023/10/09 03:21:46;;;;;;;20.38;9.82;;;14.20;99.90;;;;;;5033329;28;20026;-74
2023/10/09 03:24:15;;;;;;;15.48;8.52;;;14.20;99.90;;;;;;5019405;28;20018;-73
2023/10/09 03:26:44;;;;;;;17.73;8.57;;;14.20;99.90;;;;;;5020063;28;20018;-73
2023/10/09 03:29:10;;;;;;;15.43;8.73;;;14.20;99.90;;;;;;5017754;28;20034;-73
2023/10/09 03:31:36;;;;;;;17.50;9.45;;;14.20;99.90;;;;;;5037207;28;20024;-74
2023/10/09 03:34:03;;;;;;;16.25;8.82;;;14.20;99.90;;;;;;5030016;28;20038;-73
2023/10/09 03:36:30;;;;;;;15.93;9.32;;;14.10;99.90;;;;;;5038119;28;20029;-73
2023/10/09 03:38:57;;;;;;;18.05;8.52;;;14.20;99.90;;;;;;5018291;28;20030;-74
2023/10/09 03:41:29;;;;;;;16.83;8.10;;;14.10;99.90;;;;;;5031176;28;20045;-73
2023/10/09 03:43:59;;;;;;;13.57;8.50;;;14.20;99.90;;;;;;5036002;28;20085;-74
2023/10/09 03:46:32;;;;;;;15.43;8.30;;;14.20;99.90;;;;;;5035675;28;20085;-73
2023/10/09 03:49:02;;;;;;;18.95;8.90;;;14.20;99.90;;;;;;5013042;28;20308;-73
2023/10/09 03:51:29;;;;;;;19.67;9.80;;;14.20;99.90;;;;;;5037612;28;20034;-73
2023/10/09 03:53:57;;;;;;;13.95;8.30;;;14.20;99.90;;;;;;5029392;28;20033;-73
2023/10/09 03:56:25;;;;;;;18.02;8.45;;;14.10;99.90;;;;;;5030038;28;20014;-73
2023/10/09 03:58:53;;;;;;;14.32;8.27;;;14.10;99.90;;;;;;5031245;28;20068;-73
2023/10/09 04:03:47;;;;;;;14.88;8.07;;;14.10;99.90;;;;;;5034352;28;20093;-73
2023/10/09 04:06:13;;;;;;;17.63;9.05;;;14.10;99.90;;;;;;5018863;28;20045;-73
2023/10/09 04:08:47;;;;;;;15.90;8.52;;;14.20;99.90;;;;;;5034889;28;20048;-73
2023/10/09 04:11:17;;;;;;;18.95;9.52;;;14.10;99.90;;;;;;5018752;28;20022;-73
2023/10/09 04:13:46;;;;;;;14.88;8.45;;;14.10;99.90;;;;;;5035428;28;20320;-73
2023/10/09 04:18:57;;;;;;;15.23;8.82;;;14.20;99.90;;;;;;5034627;28;20029;-73
2023/10/09 04:21:36;;;;;;;17.52;8.18;;;14.20;99.90;;;;;;5029241;28;20045;-74
2023/10/09 04:26:45;;;;;;;16.73;8.35;;;14.20;99.90;;;;;;5034824;28;20022;-74
2023/10/09 04:30:00;;;;;;;23.20;9.75;;;14.10;99.90;;;;;;5034146;28;20018;-73
2023/10/09 04:32:15;;;;;;;15.63;8.23;;;14.10;99.90;;;;;;5030041;28;20022;-73
2023/10/09 04:35:19;;;;;;;16.83;8.68;;;14.20;99.90;;;;;;5018969;28;20080;-74
2023/10/09 04:37:44;;;;;;;15.45;8.48;;;14.20;99.90;;;;;;5036952;28;20073;-73
2023/10/09 04:40:14;;;;;;;16.10;8.32;;;14.20;99.90;;;;;;5036138;28;20029;-73
2023/10/09 04:42:48;;;;;;;17.65;9.88;;;14.20;99.90;;;;;;5037657;28;20040;-73
2023/10/09 04:46:06;;;;;;;16.85;8.30;;;14.20;99.90;;;;;;5034281;28;20030;-73
2023/10/09 04:48:09;;;;;;;15.27;8.25;;;14.20;99.90;;;;;;5039949;28;20018;-73
2023/10/09 04:51:10;;;;;;;13.60;7.95;;;14.20;99.90;;;;;;5039189;28;20021;-73
2023/10/09 04:53:23;;;;;;;12.65;7.72;;;14.20;99.90;;;;;;5037819;28;20037;-73
2023/10/09 04:55:55;;;;;;;13.55;7.00;;;14.20;99.90;;;;;;5039486;28;20014;-74
2023/10/09 04:58:25;;;;;;;17.00;8.88;;;14.20;99.90;;;;;;5021644;28;20018;-73
2023/10/09 05:08:54;;;;;;;17.05;9.10;;;14.20;99.90;;;;;;5040197;28;20017;-73
2023/10/09 05:14:13;;;;;;;14.68;8.20;;;14.20;99.90;;;;;;5037862;28;20121;-73
2023/10/09 05:16:54;;;;;;;17.13;8.93;;;14.20;99.90;;;;;;5038836;28;20068;-73
2023/10/09 05:22:29;;;;;;;17.05;9.02;;;14.20;99.90;;;;;;5038129;28;20037;-74
2023/10/09 05:24:58;;;;;;;18.20;8.10;;;14.20;99.90;;;;;;5032562;28;20053;-73
2023/10/09 05:30:27;;;;;;;12.40;7.32;;;14.20;99.90;;;;;;5038921;28;20037;-73
2023/10/09 05:35:39;;;;;;;13.90;7.28;;;14.30;99.90;;;;;;5038349;28;20024;-73
2023/10/09 05:38:23;;;;;;;17.58;7.60;;;14.30;99.90;;;;;;5022152;28;20025;-73
2023/10/09 05:40:53;;;;;;;14.77;6.30;;;14.30;99.90;;;;;;5039863;28;20034;-74
2023/10/09 05:46:35;;;;;;;12.18;6.00;;;14.40;99.90;;;;;;5011011;28;20030;-73
2023/10/09 05:49:09;;;;;;;12.90;6.63;;;14.50;99.90;;;;;;5020218;28;20037;-73
2023/10/09 05:51:41;;;;;;;12.02;5.93;;;14.60;99.90;;;;;;5030581;28;20026;-74
2023/10/09 06:03:23;;;;;;;14.63;6.28;;;15.00;99.90;;;;;;5037478;28;20186;-74
2023/10/09 06:05:40;;;;;;;11.75;6.40;;;15.10;99.90;;;;;;5037329;28;20081;-73
2023/10/09 06:08:06;;;;;;;12.90;6.50;;;15.10;99.90;;;;;;5036819;28;20318;-74
2023/10/09 06:10:41;;;;;;;13.13;6.97;;;15.10;99.90;;;;;;5036287;28;20026;-74
2023/10/09 06:13:19;;;;;;;13.25;6.15;;;15.20;99.90;;;;;;5018160;28;20095;-75
2023/10/09 06:18:26;;;;;;;15.10;7.63;;;15.20;99.90;;;;;;5035947;28;20040;-75
2023/10/09 06:26:32;;;;;;;11.10;5.90;;;15.00;99.90;;;;;;5025273;28;20030;-74
2023/10/09 06:29:30;;;;;;;20.55;9.70;;;15.00;99.90;;;;;;5037503;28;20032;-75
2023/10/09 06:32:16;;;;;;;16.50;8.25;;;15.00;99.90;;;;;;5018717;28;20065;-74
2023/10/09 06:34:52;;;;;;;15.20;7.13;;;14.90;99.90;;;;;;5016042;28;20041;-74
2023/10/09 06:39:50;;;;;;;;;;;14.90;99.90;;;;;;5037133;28;20033;-74
2023/10/09 06:45:14;;;;;;;13.20;6.53;;;14.90;99.90;;;;;;5036424;28;20041;-73
2023/10/09 06:47:59;;;;;;;14.68;5.60;;;14.90;99.90;;;;;;5035573;28;20022;-73
2023/10/09 06:50:55;;;;;;;8.77;4.97;;;14.90;99.90;;;;;;5029673;28;20026;-73
2023/10/09 06:55:48;;;;;;;10.25;4.78;;;15.00;99.90;;;;;;5036381;28;20014;-73
2023/10/09 06:58:41;;;;;;;13.38;6.65;;;15.10;99.90;;;;;;5019703;28;20022;-73
2023/10/09 07:01:19;;;;;;;10.55;6.50;;;15.10;99.90;;;;;;5036356;28;20034;-74
2023/10/09 07:03:59;;;;;;;12.05;5.88;;;15.10;99.90;;;;;;5026629;28;20062;-73
2023/10/09 07:14:06;;;;;;;14.70;6.22;;;15.20;99.90;;;;;;5035237;28;20037;-73
2023/10/09 07:16:38;;;;;;;12.18;6.47;;;15.20;99.90;;;;;;5036151;28;20053;-72
2023/10/09 07:19:35;;;;;;;18.13;6.53;;;15.30;99.90;;;;;;5035707;28;20026;-73
2023/10/09 07:21:54;;;;;;;14.60;6.72;;;15.30;99.90;;;;;;5035684;28;20018;-74
2023/10/09 07:24:24;;;;;;;13.50;7.28;;;15.30;99.90;;;;;;5035299;28;20085;-74
2023/10/09 07:26:55;;;;;;;13.30;6.55;;;15.40;99.90;;;;;;5018569;28;20033;-74
2023/10/09 07:29:23;;;;;;;9.93;6.88;;;15.50;99.90;;;;;;5030086;28;20113;-73
2023/10/09 07:31:57;;;;;;;17.00;7.28;;;15.50;99.90;;;;;;5020193;28;20030;-73
2023/10/09 07:34:52;;;;;;;12.38;6.15;;;15.70;99.90;;;;;;5034846;28;20034;-73
2023/10/09 07:37:30;;;;;;;13.90;6.82;;;15.80;99.90;;;;;;5017405;28;20404;-74
2023/10/09 07:40:06;;;;;;;14.48;5.53;;;16.00;99.90;;;;;;5035197;28;20123;-73
2023/10/09 07:48:05;;;;;;;15.93;6.53;;;16.40;99.90;;;;;;5034796;28;20118;-73
2023/10/09 07:50:40;;;;;;;11.98;6.28;;;16.50;99.90;;;;;;5035081;28;20026;-74
2023/10/09 07:53:25;;;;;;;10.00;5.40;;;16.60;99.90;;;;;;5035073;28;20040;-73
2023/10/09 07:55:55;;;;;;;14.43;5.95;;;16.60;99.90;;;;;;5012466;28;20014;-73
2023/10/09 07:58:28;;;;;;;12.40;5.00;;;16.70;99.90;;;;;;5016283;28;20033;-73
2023/10/09 08:01:07;;;;;;;14.73;5.63;;;16.70;99.90;;;;;;5012848;28;20151;-74
2023/10/09 08:03:36;;;;;;;14.18;5.63;;;16.80;99.90;;;;;;5036641;28;20053;-74
2023/10/09 08:17:20;;;;;;;9.23;5.75;;;17.00;99.90;;;;;;5038482;28;20076;-73
2023/10/09 08:20:11;;;;;;;13.70;6.45;;;17.00;99.90;;;;;;5039989;28;20025;-74
2023/10/09 08:22:42;;;;;;;12.23;5.65;;;17.00;99.90;;;;;;5038858;28;20049;-74
2023/10/09 08:25:27;;;;;;;9.20;5.22;;;17.00;99.90;;;;;;5040563;28;20030;-77
2023/10/09 08:28:39;;;;;;;12.85;5.60;;;17.10;99.90;;;;;;5033316;28;20038;-74
2023/10/09 08:36:01;;;;;;;8.95;5.15;;;17.20;99.90;;;;;;5019193;28;20050;-79
2023/10/09 08:38:30;;;;;;;11.63;6.07;;;17.30;99.90;;;;;;4990511;28;20037;-79
2023/10/09 08:40:58;;;;;;;12.90;6.68;;;17.30;99.90;;;;;;5013592;28;20030;-81
2023/10/09 08:43:24;;;;;;;14.02;6.05;;;17.40;99.90;;;;;;5009119;28;20061;-80
2023/10/09 08:45:54;;;;;;;10.52;4.93;;;17.40;99.90;;;;;;4999638;28;20170;-81
2023/10/09 08:48:21;;;;;;;15.07;5.95;;;17.50;99.90;;;;;;5008184;28;20057;-81
2023/10/09 08:50:54;;;;;;;10.65;4.93;;;17.50;99.90;;;;;;5007990;28;20309;-82
2023/10/09 08:53:21;;;;;;;8.70;5.28;;;17.50;99.90;;;;;;4992235;28;20117;-81
2023/10/09 08:55:47;;;;;;;14.68;6.63;;;17.60;99.90;;;;;;5006333;28;20470;-82
2023/10/09 08:58:24;;;;;;;17.75;6.28;;;17.60;99.90;;;;;;5008354;28;20033;-80
2023/10/09 09:00:51;;;;;;;12.45;5.82;;;17.70;99.90;;;;;;5008248;28;20022;-82
2023/10/09 09:03:23;;;;;;;13.05;6.47;;;17.70;99.90;;;;;;5010301;28;20041;-83
2023/10/09 09:06:00;;;;;;;12.70;5.70;;;17.80;99.90;;;;;;4989979;28;20121;-79
2023/10/09 09:08:30;;;;;;;12.27;5.97;;;17.80;99.90;;;;;;5010114;28;20026;-87
2023/10/09 09:11:12;;;;;;;11.23;5.85;;;17.90;99.90;;;;;;5008532;28;20098;-82
2023/10/09 09:13:50;;;;;;;;;;;17.90;99.90;;;;;;5013480;28;20032;-87
2023/10/09 09:16:16;;;;;;;22.90;6.40;;;17.90;99.90;;;;;;5003433;28;19917;-85
2023/10/09 09:19:04;;;;;;;15.00;7.18;;;17.90;99.90;;;;;;5005892;28;20029;-85
2023/10/09 09:21:40;;;;;;;11.70;6.95;;;18.00;99.90;;;;;;5011087;28;20037;-86
2023/10/09 09:29:38;;;;;;;10.88;5.93;;;18.10;99.90;;;;;;5209621;22;20385;-87
2023/10/09 09:32:20;;;;;;;9.77;5.70;;;18.20;99.90;;;;;;5040722;28;20044;-87
2023/10/09 09:34:49;;;;;;;12.93;5.82;;;18.20;99.90;;;;;;5041332;28;20047;-87
2023/10/09 09:37:30;;;;;;;11.32;5.25;;;18.30;99.90;;;;;;5032009;28;20029;-83
2023/10/09 09:40:00;;;;;;;13.13;5.28;;;18.40;99.90;;;;;;5022803;28;20024;-83
2023/10/09 09:42:27;;;;;;;12.85;5.55;;;18.50;99.90;;;;;;5039233;28;20094;-83
2023/10/09 09:44:55;;;;;;;17.67;5.80;;;18.50;99.90;;;;;;5041511;28;20061;-80
2023/10/09 09:47:26;;;;;;;12.63;6.07;;;18.50;99.90;;;;;;5040378;28;20115;-82
2023/10/09 09:50:11;;;;;;;16.20;5.60;;;18.60;99.90;;;;;;5023464;28;20124;-82
2023/10/09 09:52:40;;;;;;;14.75;6.07;;;18.60;99.90;;;;;;5028146;28;20104;-86
2023/10/09 09:55:14;;;;;;;14.88;6.35;;;18.70;99.90;;;;;;5040313;28;20033;-85
2023/10/09 09:57:40;;;;;;;17.88;5.53;;;18.80;99.90;;;;;;5039451;28;20075;-88
2023/10/09 10:00:27;;;;;;;15.07;5.57;;;18.80;99.90;;;;;;5041767;28;20110;-81
2023/10/09 10:02:57;;;;;;;13.65;5.72;;;18.90;99.90;;;;;;5040598;28;20025;-89
2023/10/09 10:05:29;;;;;;;9.57;4.82;;;19.00;99.90;;;;;;5039938;28;20040;-86
2023/10/09 10:07:57;;;;;;;10.38;5.25;;;19.20;99.90;;;;;;5040454;28;20024;-80
2023/10/09 10:11:04;;;;;;;18.35;5.28;;;19.20;99.90;;;;;;5040948;28;20741;-83
2023/10/09 10:13:42;;;;;;;14.13;5.38;;;19.30;99.90;;;;;;5021579;28;20037;-82
2023/10/09 10:16:20;;;;;;;10.05;5.18;;;19.40;99.90;;;;;;5041794;28;20140;-88
2023/10/09 10:19:06;;;;;;;15.18;5.70;;;19.60;99.90;;;;;;5039605;28;20112;-82
2023/10/09 10:21:40;;;;;;;16.40;4.88;;;19.70;99.90;;;;;;5040298;28;20025;-88
2023/10/09 10:24:32;;;;;;;11.00;4.78;;;19.80;99.90;;;;;;5041431;28;20044;-84
2023/10/09 10:27:31;;;;;;;11.00;5.45;;;19.90;99.90;;;;;;5044463;28;20037;-85
2023/10/09 10:30:33;;;;;;;7.15;3.90;;;20.10;99.90;;;;;;5022855;28;20033;-87
2023/10/09 10:33:09;;;;;;;11.07;4.28;;;20.20;99.90;;;;;;5042731;28;20026;-85
2023/10/09 10:35:46;;;;;;;12.60;4.80;;;20.20;99.90;;;;;;5028370;28;20037;-84
2023/10/09 10:38:42;;;;;;;7.20;3.92;;;20.20;99.90;;;;;;5022232;28;20022;-86
2023/10/09 10:41:22;;;;;;;10.43;4.03;;;20.30;99.90;;;;;;5039894;28;20021;-86
2023/10/09 10:46:24;;;;;;;8.30;4.15;;;20.30;99.90;;;;;;5039878;28;20026;-80
2023/10/09 10:49:15;;;;;;;8.40;3.63;;;20.40;99.90;;;;;;5041340;28;20116;-82
2023/10/09 10:51:47;;;;;;;9.60;4.03;;;20.40;99.90;;;;;;5039209;28;20039;-87
2023/10/09 10:56:52;;;;;;;14.60;3.10;;;20.40;99.90;;;;;;5039667;28;20037;-89
2023/10/09 10:59:28;;;;;;;9.68;3.65;;;20.50;99.90;;;;;;5041019;28;20060;-80
2023/10/09 11:02:13;;;;;;;6.45;3.13;;;20.50;99.90;;;;;;5021662;28;20025;-79
2023/10/09 11:04:41;;;;;;;10.18;3.67;;;20.50;99.90;;;;;;5022594;28;20033;-78
2023/10/09 11:07:12;;;;;;;9.30;3.53;;;20.60;99.90;;;;;;5041428;28;20040;-89
2023/10/09 11:15:46;;;;;;;8.55;3.55;;;20.80;99.90;;;;;;5039955;28;20045;-86
2023/10/09 11:18:25;;;;;;;7.18;3.45;;;20.80;99.90;;;;;;5041358;28;20026;-82
2023/10/09 11:21:40;;;;;;;8.77;3.78;;;20.90;99.90;;;;;;5041233;28;20372;-84
2023/10/09 11:24:24;;;;;;;8.32;3.45;;;20.80;99.90;;;;;;5033877;28;20485;-87
2023/10/09 11:26:54;;;;;;;8.95;3.83;;;21.00;99.90;;;;;;5039791;28;20028;-83
2023/10/09 11:29:23;;;;;;;7.57;3.50;;;21.10;99.90;;;;;;5021022;28;20119;-91
2023/10/09 11:32:05;;;;;;;8.68;3.35;;;21.20;99.90;;;;;;5022443;28;20174;-81
2023/10/09 11:34:31;;;;;;;13.98;3.80;;;21.20;99.90;;;;;;5021133;28;20048;-83
2023/10/09 11:37:16;;;;;;;8.35;3.92;;;21.10;99.90;;;;;;5021319;28;20039;-84
2023/10/09 11:39:51;;;;;;;6.55;3.30;;;21.20;99.90;;;;;;5040097;28;20090;-86
2023/10/09 11:42:48;;;;;;;6.97;3.63;;;21.20;99.90;;;;;;5038174;28;20025;-84
2023/10/09 11:45:37;;;;;;;7.32;3.28;;;21.20;99.90;;;;;;5025122;28;20098;-85
2023/10/09 11:48:46;;;;;;;12.27;4.10;;;21.10;99.90;;;;;;5019105;28;21244;-79
2023/10/09 11:51:21;;;;;;;7.85;3.78;;;21.20;99.90;;;;;;5037333;28;20025;-88
2023/10/09 11:53:49;;;;;;;6.78;3.80;;;21.10;99.90;;;;;;5036443;28;20036;-84
2023/10/09 11:56:19;;;;;;;8.32;3.38;;;21.10;99.90;;;;;;5038264;28;20426;-85
2023/10/09 11:58:51;;;;;;;14.07;3.90;;;21.10;99.90;;;;;;5039004;28;20024;-88
2023/10/09 12:01:22;;;;;;;8.55;3.88;;;21.00;99.90;;;;;;5039747;28;20021;-81
2023/10/09 12:03:52;;;;;;;8.85;3.95;;;21.10;99.90;;;;;;5038776;28;20025;-88
2023/10/09 12:06:32;;;;;;;9.27;3.60;;;21.30;99.90;;;;;;5038067;28;20029;-88
2023/10/09 12:08:58;;;;;;;11.90;3.90;;;21.30;99.90;;;;;;5038739;28;20027;-88
2023/10/09 12:11:32;;;;;;;13.80;4.20;;;21.40;99.90;;;;;;5038952;28;20025;-84
2023/10/09 12:14:00;;;;;;;11.23;3.83;;;21.50;99.90;;;;;;5018717;28;20387;-88
2023/10/09 12:16:28;;;;;;;13.60;4.93;;;21.50;99.90;;;;;;5039283;28;20031;-82
2023/10/09 12:18:56;;;;;;;8.95;3.88;;;21.50;99.90;;;;;;5040929;28;20025;-84
2023/10/09 12:21:23;;;;;;;10.60;4.07;;;21.60;99.90;;;;;;5019181;28;20072;-86
2023/10/09 12:23:49;;;;;;;14.27;4.57;;;21.50;99.90;;;;;;5028083;28;20340;-86
2023/10/09 12:26:17;;;;;;;13.35;4.35;;;21.40;99.90;;;;;;5038549;28;20474;-81
2023/10/09 12:28:47;;;;;;;13.98;4.40;;;21.50;99.90;;;;;;5024399;28;20036;-84
2023/10/09 12:31:19;;;;;;;13.18;4.88;;;21.40;99.90;;;;;;5020215;28;20118;-85
2023/10/09 12:33:46;;;;;;;10.43;4.85;;;21.30;99.90;;;;;;5038231;28;20125;-83
2023/10/09 12:36:20;;;;;;;7.70;4.15;;;21.30;99.90;;;;;;5025330;28;20061;-85
2023/10/09 12:38:58;;;;;;;11.45;4.70;;;21.30;99.90;;;;;;5019160;28;20025;-84
2023/10/09 12:41:33;;;;;;;9.68;4.30;;;21.30;99.90;;;;;;5018484;28;20057;-84
2023/10/09 12:43:59;;;;;;;17.02;4.82;;;21.30;99.90;;;;;;5038179;28;20030;-88
2023/10/09 12:46:27;;;;;;;16.63;4.95;;;21.20;99.90;;;;;;5020595;28;20035;-81
2023/10/09 12:48:57;;;;;;;12.65;4.55;;;21.10;99.90;;;;;;5024869;28;20029;-82
2023/10/09 12:51:29;;;;;;;13.45;5.40;;;21.10;99.90;;;;;;5039040;28;20060;-86
2023/10/09 12:54:01;;;;;;;;;;;21.10;99.90;;;;;;5030869;28;20029;-83
2023/10/09 12:56:37;;;;;;;13.48;5.30;;;21.10;99.90;;;;;;5021371;28;19913;-85
2023/10/09 12:59:04;;;;;;;10.73;4.13;;;21.00;99.90;;;;;;5020717;28;20029;-89
2023/10/09 13:01:42;;;;;;;12.57;5.25;;;21.00;99.90;;;;;;5039123;28;20086;-89
2023/10/09 13:04:17;;;;;;;13.00;5.50;;;20.90;99.90;;;;;;5032785;28;20874;-83
2023/10/09 13:06:44;;;;;;;13.23;5.03;;;20.90;99.90;;;;;;5022127;28;20043;-83
2023/10/09 13:09:14;;;;;;;8.95;4.45;;;20.90;99.90;;;;;;5023139;28;20110;-88
2023/10/09 13:11:43;;;;;;;8.88;5.00;;;20.80;99.90;;;;;;5022196;28;20039;-86
2023/10/09 13:14:21;;;;;;;9.43;4.57;;;20.90;99.90;;;;;;5040686;28;20052;-85
2023/10/09 13:16:50;;;;;;;15.68;4.88;;;20.90;99.90;;;;;;5021688;28;20859;-82
2023/10/09 13:19:17;;;;;;;9.73;4.30;;;20.80;99.90;;;;;;5042427;28;20111;-86
2023/10/09 13:21:43;;;;;;;16.60;5.25;;;20.90;99.90;;;;;;5024294;28;20047;-88
2023/10/09 13:24:23;;;;;;;13.10;4.50;;;20.90;99.90;;;;;;5040091;28;20048;-86
2023/10/09 13:26:52;;;;;;;11.05;4.75;;;20.90;99.90;;;;;;5040997;28;20025;-88
2023/10/09 13:29:22;;;;;;;10.93;4.60;;;20.90;99.90;;;;;;5024358;28;20103;-83
2023/10/09 13:31:51;;;;;;;10.88;4.35;;;21.00;99.90;;;;;;5043269;28;20559;-83
2023/10/09 13:34:18;;;;;;;9.82;4.70;;;21.00;99.90;;;;;;5022322;28;20612;-88
2023/10/09 13:36:59;;;;;;;13.65;4.93;;;21.10;99.90;;;;;;5039961;28;20702;-84
2023/10/09 13:41:57;;;;;;;11.82;4.45;;;21.10;99.90;;;;;;5041016;28;20082;-86
2023/10/09 13:44:29;;;;;;;10.55;5.13;;;21.20;99.90;;;;;;5028052;28;20043;-88
2023/10/09 13:47:01;;;;;;;8.95;3.88;;;21.20;99.90;;;;;;5039447;28;20036;-86
2023/10/09 13:49:29;;;;;;;10.98;4.65;;;21.20;99.90;;;;;;5041887;28;20057;-83
2023/10/09 13:51:56;;;;;;;14.65;4.85;;;21.20;99.90;;;;;;5022935;28;20067;-83
2023/10/09 13:54:39;;;;;;;10.65;4.70;;;21.10;99.90;;;;;;5041569;28;20112;-85
2023/10/09 13:57:07;;;;;;;9.80;4.85;;;21.20;99.90;;;;;;5020500;28;20060;-86
2023/10/09 13:59:35;;;;;;;13.98;4.63;;;21.20;99.90;;;;;;5040924;28;20043;-81
2023/10/09 14:02:02;;;;;;;11.50;4.72;;;21.30;99.90;;;;;;5040021;28;20067;-82
2023/10/09 14:04:28;;;;;;;9.23;4.13;;;21.30;99.90;;;;;;5020135;28;20033;-82
2023/10/09 14:06:56;;;;;;;10.55;4.82;;;21.40;99.90;;;;;;5042713;28;20135;-86
2023/10/09 14:09:37;;;;;;;8.45;4.70;;;21.40;99.90;;;;;;5041203;28;20032;-81
2023/10/09 14:12:10;;;;;;;13.10;4.85;;;21.40;99.90;;;;;;5023221;28;20037;-86
2023/10/09 14:14:38;;;;;;;19.95;5.57;;;21.50;99.90;;;;;;5041420;28;20036;-84
2023/10/09 14:17:11;;;;;;;12.65;5.00;;;21.60;99.90;;;;;;5022310;28;20220;-82
2023/10/09 14:19:38;;;;;;;11.68;4.13;;;21.60;99.90;;;;;;5029464;28;20090;-83
2023/10/09 14:22:07;;;;;;;20.48;4.70;;;21.60;99.90;;;;;;5040599;28;20041;-85
2023/10/09 14:24:37;;;;;;;15.63;5.25;;;21.60;99.90;;;;;;5032152;28;20300;-86
2023/10/09 14:27:07;;;;;;;12.88;4.80;;;21.60;99.90;;;;;;5021878;28;20037;-87
2023/10/09 14:29:37;;;;;;;10.57;4.97;;;21.60;99.90;;;;;;5040363;28;20028;-85
2023/10/09 14:32:03;;;;;;;9.50;4.53;;;21.60;99.90;;;;;;5040592;28;20045;-85
2023/10/09 14:34:32;;;;;;;14.57;5.35;;;21.50;99.90;;;;;;5041162;28;20035;-81
2023/10/09 14:37:01;;;;;;;9.73;5.05;;;21.50;99.90;;;;;;5040488;28;20029;-85
2023/10/09 14:39:29;;;;;;;16.08;5.75;;;21.60;99.90;;;;;;5038802;28;20041;-84
2023/10/09 14:41:57;;;;;;;9.70;5.43;;;21.50;99.90;;;;;;5039633;28;20032;-87
2023/10/09 14:44:27;;;;;;;8.88;4.68;;;21.50;99.90;;;;;;5043532;28;20115;-82
2023/10/09 14:46:55;;;;;;;9.65;4.90;;;21.50;99.90;;;;;;5043426;28;20033;-86
2023/10/09 14:49:21;;;;;;;10.68;5.13;;;21.50;99.90;;;;;;5025975;28;20029;-82
2023/10/09 14:51:47;;;;;;;12.15;5.15;;;21.50;99.90;;;;;;5022060;28;20043;-80
2023/10/09 14:54:17;;;;;;;13.63;5.38;;;21.50;99.90;;;;;;5031497;28;20025;-86
2023/10/09 14:56:45;;;;;;;14.95;5.03;;;21.50;99.90;;;;;;5042623;28;20016;-86
2023/10/09 14:59:11;;;;;;;10.43;5.75;;;21.50;99.90;;;;;;5043354;28;20061;-87
2023/10/09 15:01:40;;;;;;;18.73;5.90;;;21.50;99.90;;;;;;5023791;28;20025;-86
2023/10/09 15:04:07;;;;;;;12.55;4.90;;;21.60;99.90;;;;;;5042650;28;20059;-84
2023/10/09 15:06:33;;;;;;;12.65;5.72;;;21.50;99.90;;;;;;5023295;28;20037;-84
2023/10/09 15:09:09;;;;;;;11.45;5.65;;;21.50;99.90;;;;;;5026981;28;20029;-84
2023/10/09 15:11:37;;;;;;;14.65;5.18;;;21.40;99.90;;;;;;5040736;28;20033;-82
2023/10/09 15:14:05;;;;;;;11.32;5.47;;;21.30;99.90;;;;;;5023502;28;20136;-84
2023/10/09 15:16:31;;;;;;;11.93;5.35;;;21.30;99.90;;;;;;5020372;28;20067;-84
2023/10/09 15:19:02;;;;;;;12.77;4.57;;;21.20;99.90;;;;;;5041644;28;20048;-87
2023/10/09 15:21:32;;;;;;;13.25;5.18;;;21.10;99.90;;;;;;5021290;28;20079;-81
2023/10/09 15:24:01;;;;;;;11.32;5.07;;;21.10;99.90;;;;;;5038383;28;20029;-79